sensor_id;sensor_type;location;lat;lon;timestamp;P1;durP1;ratioP1;P2;durP2;ratioP2
53879;SDS011;39791;53.184;5.486;2023-08-20T00:01:08;50.88;;;43.25;;
53879;SDS011;39791;53.184;5.486;2023-08-20T00:03:37;47.10;;;42.67;;
53879;SDS011;39791;53.184;5.486;2023-08-20T00:06:04;48.85;;;43.50;;
53879;SDS011;39791;53.184;5.486;2023-08-20T00:08:30;47.67;;;42.95;;
53879;SDS011;39791;53.184;5.486;2023-08-20T00:10:56;49.42;;;44.22;;
53879;SDS011;39791;53.184;5.486;2023-08-20T00:13:21;48.45;;;43.33;;
53879;SDS011;39791;53.184;5.486;2023-08-20T00:15:47;50.13;;;42.92;;
53879;SDS011;39791;53.184;5.486;2023-08-20T00:18:13;48.42;;;43.10;;
53879;SDS011;39791;53.184;5.486;2023-08-20T00:20:39;48.05;;;42.70;;
53879;SDS011;39791;53.184;5.486;2023-08-20T00:23:05;48.38;;;41.05;;
53879;SDS011;39791;53.184;5.486;2023-08-20T00:25:31;45.08;;;41.00;;
53879;SDS011;39791;53.184;5.486;2023-08-20T00:27:59;47.08;;;42.20;;
53879;SDS011;39791;53.184;5.486;2023-08-20T00:30:25;46.67;;;41.72;;
53879;SDS011;39791;53.184;5.486;2023-08-20T00:32:50;47.50;;;42.55;;
53879;SDS011;39791;53.184;5.486;2023-08-20T00:35:16;46.97;;;42.58;;
53879;SDS011;39791;53.184;5.486;2023-08-20T00:37:42;48.28;;;43.00;;
53879;SDS011;39791;53.184;5.486;2023-08-20T00:40:09;49.05;;;43.75;;
53879;SDS011;39791;53.184;5.486;2023-08-20T00:42:36;47.35;;;42.30;;
53879;SDS011;39791;53.184;5.486;2023-08-20T00:45:02;45.95;;;41.58;;
53879;SDS011;39791;53.184;5.486;2023-08-20T00:47:29;45.53;;;41.13;;
53879;SDS011;39791;53.184;5.486;2023-08-20T00:49:54;46.85;;;42.42;;
53879;SDS011;39791;53.184;5.486;2023-08-20T00:52:20;46.45;;;42.28;;
53879;SDS011;39791;53.184;5.486;2023-08-20T00:54:47;49.17;;;44.15;;
53879;SDS011;39791;53.184;5.486;2023-08-20T00:57:17;47.50;;;42.92;;
53879;SDS011;39791;53.184;5.486;2023-08-20T00:59:44;47.60;;;42.55;;
53879;SDS011;39791;53.184;5.486;2023-08-20T01:02:13;48.20;;;43.45;;
53879;SDS011;39791;53.184;5.486;2023-08-20T01:04:40;48.75;;;44.00;;
53879;SDS011;39791;53.184;5.486;2023-08-20T01:07:29;48.42;;;43.58;;
53879;SDS011;39791;53.184;5.486;2023-08-20T01:10:23;49.63;;;44.85;;
53879;SDS011;39791;53.184;5.486;2023-08-20T01:13:05;50.03;;;45.10;;
53879;SDS011;39791;53.184;5.486;2023-08-20T01:15:32;49.42;;;44.50;;
53879;SDS011;39791;53.184;5.486;2023-08-20T01:17:57;50.35;;;45.17;;
53879;SDS011;39791;53.184;5.486;2023-08-20T01:20:24;44.88;;;40.78;;
53879;SDS011;39791;53.184;5.486;2023-08-20T01:28:53;45.30;;;40.72;;
53879;SDS011;39791;53.184;5.486;2023-08-20T01:31:20;44.25;;;39.75;;
53879;SDS011;39791;53.184;5.486;2023-08-20T01:33:46;43.78;;;39.33;;
53879;SDS011;39791;53.184;5.486;2023-08-20T01:36:12;45.10;;;40.63;;
53879;SDS011;39791;53.184;5.486;2023-08-20T01:38:38;43.17;;;38.45;;
53879;SDS011;39791;53.184;5.486;2023-08-20T01:41:03;45.28;;;40.50;;
53879;SDS011;39791;53.184;5.486;2023-08-20T01:43:29;43.85;;;39.70;;
53879;SDS011;39791;53.184;5.486;2023-08-20T01:45:55;46.17;;;41.38;;
53879;SDS011;39791;53.184;5.486;2023-08-20T01:48:21;52.35;;;42.00;;
53879;SDS011;39791;53.184;5.486;2023-08-20T01:50:46;46.65;;;41.75;;
53879;SDS011;39791;53.184;5.486;2023-08-20T01:53:12;46.03;;;40.92;;
53879;SDS011;39791;53.184;5.486;2023-08-20T01:55:38;46.53;;;42.30;;
53879;SDS011;39791;53.184;5.486;2023-08-20T01:58:03;45.95;;;41.65;;
53879;SDS011;39791;53.184;5.486;2023-08-20T02:00:29;44.22;;;39.92;;
53879;SDS011;39791;53.184;5.486;2023-08-20T02:02:55;43.17;;;38.83;;
53879;SDS011;39791;53.184;5.486;2023-08-20T02:05:21;45.90;;;41.33;;
53879;SDS011;39791;53.184;5.486;2023-08-20T02:07:47;47.17;;;42.40;;
53879;SDS011;39791;53.184;5.486;2023-08-20T02:10:12;49.80;;;42.63;;
53879;SDS011;39791;53.184;5.486;2023-08-20T02:12:39;45.53;;;40.05;;
53879;SDS011;39791;53.184;5.486;2023-08-20T02:15:05;45.42;;;40.72;;
53879;SDS011;39791;53.184;5.486;2023-08-20T02:17:32;45.78;;;40.80;;
53879;SDS011;39791;53.184;5.486;2023-08-20T02:19:57;46.42;;;41.88;;
53879;SDS011;39791;53.184;5.486;2023-08-20T02:22:23;46.03;;;41.35;;
53879;SDS011;39791;53.184;5.486;2023-08-20T02:24:49;44.70;;;40.08;;
53879;SDS011;39791;53.184;5.486;2023-08-20T02:27:14;43.90;;;39.50;;
53879;SDS011;39791;53.184;5.486;2023-08-20T02:29:40;44.80;;;40.63;;
53879;SDS011;39791;53.184;5.486;2023-08-20T02:32:05;44.80;;;40.08;;
53879;SDS011;39791;53.184;5.486;2023-08-20T02:34:31;46.72;;;41.50;;
53879;SDS011;39791;53.184;5.486;2023-08-20T02:36:57;44.75;;;40.10;;
53879;SDS011;39791;53.184;5.486;2023-08-20T02:39:22;45.70;;;40.88;;
53879;SDS011;39791;53.184;5.486;2023-08-20T02:41:49;47.70;;;40.35;;
53879;SDS011;39791;53.184;5.486;2023-08-20T02:44:15;43.67;;;39.05;;
53879;SDS011;39791;53.184;5.486;2023-08-20T02:46:40;44.10;;;39.75;;
53879;SDS011;39791;53.184;5.486;2023-08-20T02:49:06;43.30;;;39.22;;
53879;SDS011;39791;53.184;5.486;2023-08-20T02:51:32;43.95;;;39.38;;
53879;SDS011;39791;53.184;5.486;2023-08-20T02:53:57;45.53;;;40.92;;
53879;SDS011;39791;53.184;5.486;2023-08-20T02:56:23;43.47;;;38.83;;
53879;SDS011;39791;53.184;5.486;2023-08-20T02:58:48;43.40;;;38.80;;
53879;SDS011;39791;53.184;5.486;2023-08-20T03:01:20;43.97;;;39.80;;
53879;SDS011;39791;53.184;5.486;2023-08-20T03:03:47;44.95;;;39.33;;
53879;SDS011;39791;53.184;5.486;2023-08-20T03:06:13;46.95;;;41.95;;
53879;SDS011;39791;53.184;5.486;2023-08-20T03:08:39;43.72;;;39.50;;
53879;SDS011;39791;53.184;5.486;2023-08-20T03:11:04;43.63;;;39.13;;
53879;SDS011;39791;53.184;5.486;2023-08-20T03:13:30;41.58;;;37.38;;
53879;SDS011;39791;53.184;5.486;2023-08-20T03:15:56;43.70;;;39.20;;
53879;SDS011;39791;53.184;5.486;2023-08-20T03:18:22;43.38;;;39.03;;
53879;SDS011;39791;53.184;5.486;2023-08-20T03:20:47;41.05;;;37.20;;
53879;SDS011;39791;53.184;5.486;2023-08-20T03:23:13;44.03;;;38.88;;
53879;SDS011;39791;53.184;5.486;2023-08-20T03:25:38;44.90;;;39.80;;
53879;SDS011;39791;53.184;5.486;2023-08-20T03:28:04;39.92;;;35.78;;
53879;SDS011;39791;53.184;5.486;2023-08-20T03:30:30;40.80;;;36.72;;
53879;SDS011;39791;53.184;5.486;2023-08-20T03:32:56;38.25;;;33.80;;
53879;SDS011;39791;53.184;5.486;2023-08-20T03:35:22;36.90;;;33.58;;
53879;SDS011;39791;53.184;5.486;2023-08-20T03:37:47;40.47;;;36.58;;
53879;SDS011;39791;53.184;5.486;2023-08-20T03:40:13;38.35;;;34.35;;
53879;SDS011;39791;53.184;5.486;2023-08-20T03:42:39;39.95;;;35.78;;
53879;SDS011;39791;53.184;5.486;2023-08-20T03:45:05;38.38;;;34.45;;
53879;SDS011;39791;53.184;5.486;2023-08-20T03:47:31;39.53;;;35.38;;
53879;SDS011;39791;53.184;5.486;2023-08-20T03:49:56;39.90;;;36.03;;
53879;SDS011;39791;53.184;5.486;2023-08-20T03:52:22;38.03;;;34.30;;
53879;SDS011;39791;53.184;5.486;2023-08-20T03:54:47;38.05;;;34.60;;
53879;SDS011;39791;53.184;5.486;2023-08-20T03:57:13;38.53;;;34.67;;
53879;SDS011;39791;53.184;5.486;2023-08-20T03:59:39;37.22;;;33.80;;
53879;SDS011;39791;53.184;5.486;2023-08-20T04:02:04;40.70;;;36.75;;
53879;SDS011;39791;53.184;5.486;2023-08-20T04:04:30;44.40;;;37.85;;
53879;SDS011;39791;53.184;5.486;2023-08-20T04:06:56;42.35;;;37.78;;
53879;SDS011;39791;53.184;5.486;2023-08-20T04:09:22;41.65;;;37.50;;
53879;SDS011;39791;53.184;5.486;2023-08-20T04:11:47;45.42;;;38.00;;
53879;SDS011;39791;53.184;5.486;2023-08-20T04:14:13;41.30;;;37.00;;
53879;SDS011;39791;53.184;5.486;2023-08-20T04:16:38;41.10;;;36.80;;
53879;SDS011;39791;53.184;5.486;2023-08-20T04:19:04;40.22;;;36.25;;
53879;SDS011;39791;53.184;5.486;2023-08-20T04:21:29;41.05;;;36.75;;
53879;SDS011;39791;53.184;5.486;2023-08-20T04:23:55;44.47;;;36.20;;
53879;SDS011;39791;53.184;5.486;2023-08-20T04:26:20;39.10;;;35.30;;
53879;SDS011;39791;53.184;5.486;2023-08-20T04:28:46;41.10;;;36.83;;
53879;SDS011;39791;53.184;5.486;2023-08-20T04:31:12;40.88;;;36.25;;
53879;SDS011;39791;53.184;5.486;2023-08-20T04:33:37;40.00;;;35.97;;
53879;SDS011;39791;53.184;5.486;2023-08-20T04:36:03;45.25;;;37.72;;
53879;SDS011;39791;53.184;5.486;2023-08-20T04:38:28;47.67;;;38.28;;
53879;SDS011;39791;53.184;5.486;2023-08-20T04:40:54;51.13;;;38.00;;
53879;SDS011;39791;53.184;5.486;2023-08-20T04:43:19;45.28;;;36.95;;
53879;SDS011;39791;53.184;5.486;2023-08-20T04:45:45;40.25;;;35.58;;
53879;SDS011;39791;53.184;5.486;2023-08-20T04:48:10;39.15;;;34.45;;
53879;SDS011;39791;53.184;5.486;2023-08-20T04:50:36;42.28;;;33.72;;
53879;SDS011;39791;53.184;5.486;2023-08-20T04:53:01;39.30;;;34.65;;
53879;SDS011;39791;53.184;5.486;2023-08-20T04:55:27;52.42;;;36.50;;
53879;SDS011;39791;53.184;5.486;2023-08-20T04:57:53;49.67;;;34.30;;
53879;SDS011;39791;53.184;5.486;2023-08-20T05:00:19;37.05;;;32.03;;
53879;SDS011;39791;53.184;5.486;2023-08-20T05:02:45;37.92;;;33.38;;
53879;SDS011;39791;53.184;5.486;2023-08-20T05:05:10;45.63;;;34.40;;
53879;SDS011;39791;53.184;5.486;2023-08-20T05:07:36;46.15;;;31.10;;
53879;SDS011;39791;53.184;5.486;2023-08-20T05:10:02;43.10;;;33.40;;
53879;SDS011;39791;53.184;5.486;2023-08-20T05:12:28;52.80;;;33.30;;
53879;SDS011;39791;53.184;5.486;2023-08-20T05:14:53;44.30;;;33.13;;
53879;SDS011;39791;53.184;5.486;2023-08-20T05:17:19;44.03;;;33.95;;
53879;SDS011;39791;53.184;5.486;2023-08-20T05:19:45;41.75;;;33.00;;
53879;SDS011;39791;53.184;5.486;2023-08-20T05:22:10;42.20;;;33.95;;
53879;SDS011;39791;53.184;5.486;2023-08-20T05:24:37;46.55;;;32.13;;
53879;SDS011;39791;53.184;5.486;2023-08-20T05:27:09;44.25;;;32.83;;
53879;SDS011;39791;53.184;5.486;2023-08-20T05:29:39;49.58;;;32.60;;
53879;SDS011;39791;53.184;5.486;2023-08-20T05:32:05;45.00;;;30.88;;
53879;SDS011;39791;53.184;5.486;2023-08-20T05:34:31;42.90;;;31.85;;
53879;SDS011;39791;53.184;5.486;2023-08-20T05:36:57;40.40;;;30.83;;
53879;SDS011;39791;53.184;5.486;2023-08-20T05:39:22;40.40;;;31.58;;
53879;SDS011;39791;53.184;5.486;2023-08-20T05:41:48;41.80;;;31.58;;
53879;SDS011;39791;53.184;5.486;2023-08-20T05:44:14;46.90;;;32.22;;
53879;SDS011;39791;53.184;5.486;2023-08-20T05:46:39;45.88;;;31.67;;
53879;SDS011;39791;53.184;5.486;2023-08-20T05:49:06;37.35;;;31.50;;
53879;SDS011;39791;53.184;5.486;2023-08-20T05:51:31;55.97;;;34.22;;
53879;SDS011;39791;53.184;5.486;2023-08-20T05:53:57;43.05;;;33.42;;
53879;SDS011;39791;53.184;5.486;2023-08-20T05:56:22;42.85;;;31.48;;
53879;SDS011;39791;53.184;5.486;2023-08-20T05:58:48;46.00;;;33.00;;
53879;SDS011;39791;53.184;5.486;2023-08-20T06:01:14;48.90;;;32.55;;
53879;SDS011;39791;53.184;5.486;2023-08-20T06:03:39;47.00;;;32.60;;
53879;SDS011;39791;53.184;5.486;2023-08-20T06:06:05;40.58;;;33.17;;
53879;SDS011;39791;53.184;5.486;2023-08-20T06:08:30;49.75;;;34.65;;
53879;SDS011;39791;53.184;5.486;2023-08-20T06:10:56;56.10;;;35.15;;
53879;SDS011;39791;53.184;5.486;2023-08-20T06:13:21;46.08;;;34.72;;
53879;SDS011;39791;53.184;5.486;2023-08-20T06:15:47;48.38;;;34.47;;
53879;SDS011;39791;53.184;5.486;2023-08-20T06:18:12;44.03;;;35.35;;
53879;SDS011;39791;53.184;5.486;2023-08-20T06:20:38;50.65;;;36.10;;
53879;SDS011;39791;53.184;5.486;2023-08-20T06:23:03;49.45;;;34.88;;
53879;SDS011;39791;53.184;5.486;2023-08-20T06:25:29;46.97;;;34.58;;
53879;SDS011;39791;53.184;5.486;2023-08-20T06:27:55;50.95;;;36.65;;
53879;SDS011;39791;53.184;5.486;2023-08-20T06:30:20;47.72;;;36.38;;
53879;SDS011;39791;53.184;5.486;2023-08-20T06:32:46;51.55;;;36.60;;
53879;SDS011;39791;53.184;5.486;2023-08-20T06:35:12;50.88;;;37.13;;
53879;SDS011;39791;53.184;5.486;2023-08-20T06:37:40;50.97;;;38.10;;
53879;SDS011;39791;53.184;5.486;2023-08-20T06:40:06;44.90;;;37.05;;
53879;SDS011;39791;53.184;5.486;2023-08-20T06:42:32;48.70;;;38.10;;
53879;SDS011;39791;53.184;5.486;2023-08-20T06:44:58;45.97;;;36.53;;
53879;SDS011;39791;53.184;5.486;2023-08-20T06:47:24;50.10;;;37.55;;
53879;SDS011;39791;53.184;5.486;2023-08-20T06:49:50;47.05;;;36.22;;
53879;SDS011;39791;53.184;5.486;2023-08-20T06:52:16;51.55;;;36.95;;
53879;SDS011;39791;53.184;5.486;2023-08-20T06:54:41;48.25;;;36.28;;
53879;SDS011;39791;53.184;5.486;2023-08-20T06:57:07;50.17;;;36.92;;
53879;SDS011;39791;53.184;5.486;2023-08-20T06:59:32;44.40;;;36.38;;
53879;SDS011;39791;53.184;5.486;2023-08-20T07:01:58;47.25;;;36.22;;
53879;SDS011;39791;53.184;5.486;2023-08-20T07:04:24;52.42;;;36.75;;
53879;SDS011;39791;53.184;5.486;2023-08-20T07:06:50;46.50;;;37.25;;
53879;SDS011;39791;53.184;5.486;2023-08-20T07:09:16;52.65;;;37.35;;
53879;SDS011;39791;53.184;5.486;2023-08-20T07:11:41;56.05;;;37.70;;
53879;SDS011;39791;53.184;5.486;2023-08-20T07:14:07;53.47;;;38.55;;
53879;SDS011;39791;53.184;5.486;2023-08-20T07:16:32;44.47;;;37.15;;
53879;SDS011;39791;53.184;5.486;2023-08-20T07:18:58;47.53;;;37.47;;
53879;SDS011;39791;53.184;5.486;2023-08-20T07:21:23;45.67;;;36.97;;
53879;SDS011;39791;53.184;5.486;2023-08-20T07:23:49;47.25;;;37.20;;
53879;SDS011;39791;53.184;5.486;2023-08-20T07:26:15;47.72;;;36.47;;
53879;SDS011;39791;53.184;5.486;2023-08-20T07:28:40;48.15;;;37.00;;
53879;SDS011;39791;53.184;5.486;2023-08-20T07:31:24;46.95;;;37.30;;
53879;SDS011;39791;53.184;5.486;2023-08-20T07:33:50;48.88;;;37.83;;
53879;SDS011;39791;53.184;5.486;2023-08-20T07:36:16;52.15;;;37.08;;
53879;SDS011;39791;53.184;5.486;2023-08-20T07:38:42;53.17;;;36.50;;
53879;SDS011;39791;53.184;5.486;2023-08-20T07:41:09;47.35;;;36.65;;
53879;SDS011;39791;53.184;5.486;2023-08-20T07:43:36;47.40;;;37.47;;
53879;SDS011;39791;53.184;5.486;2023-08-20T07:46:03;50.08;;;36.20;;
53879;SDS011;39791;53.184;5.486;2023-08-20T07:48:28;54.38;;;37.30;;
53879;SDS011;39791;53.184;5.486;2023-08-20T07:50:54;48.50;;;36.42;;
53879;SDS011;39791;53.184;5.486;2023-08-20T07:53:19;50.08;;;36.35;;
53879;SDS011;39791;53.184;5.486;2023-08-20T07:55:45;47.45;;;35.05;;
53879;SDS011;39791;53.184;5.486;2023-08-20T07:58:11;48.20;;;36.78;;
53879;SDS011;39791;53.184;5.486;2023-08-20T08:00:36;42.90;;;35.05;;
53879;SDS011;39791;53.184;5.486;2023-08-20T08:03:02;41.40;;;35.00;;
53879;SDS011;39791;53.184;5.486;2023-08-20T08:05:28;46.22;;;34.90;;
53879;SDS011;39791;53.184;5.486;2023-08-20T08:07:53;43.50;;;33.58;;
53879;SDS011;39791;53.184;5.486;2023-08-20T08:10:19;45.78;;;32.97;;
53879;SDS011;39791;53.184;5.486;2023-08-20T08:12:45;45.95;;;33.97;;
53879;SDS011;39791;53.184;5.486;2023-08-20T08:15:11;41.72;;;34.38;;
53879;SDS011;39791;53.184;5.486;2023-08-20T08:17:37;36.75;;;28.15;;
53879;SDS011;39791;53.184;5.486;2023-08-20T08:20:02;42.28;;;29.83;;
53879;SDS011;39791;53.184;5.486;2023-08-20T08:22:28;38.78;;;30.15;;
53879;SDS011;39791;53.184;5.486;2023-08-20T08:24:54;42.25;;;31.77;;
53879;SDS011;39791;53.184;5.486;2023-08-20T08:27:19;40.63;;;32.17;;
53879;SDS011;39791;53.184;5.486;2023-08-20T08:29:45;42.63;;;32.33;;
53879;SDS011;39791;53.184;5.486;2023-08-20T08:32:10;37.75;;;30.65;;
53879;SDS011;39791;53.184;5.486;2023-08-20T08:34:36;39.38;;;31.10;;
53879;SDS011;39791;53.184;5.486;2023-08-20T08:37:01;38.13;;;28.35;;
53879;SDS011;39791;53.184;5.486;2023-08-20T08:39:27;37.28;;;28.02;;
53879;SDS011;39791;53.184;5.486;2023-08-20T08:41:54;34.15;;;27.08;;
53879;SDS011;39791;53.184;5.486;2023-08-20T08:44:27;36.70;;;26.83;;
53879;SDS011;39791;53.184;5.486;2023-08-20T08:46:53;39.60;;;27.27;;
53879;SDS011;39791;53.184;5.486;2023-08-20T08:49:19;31.60;;;26.52;;
53879;SDS011;39791;53.184;5.486;2023-08-20T08:51:44;34.35;;;27.30;;
53879;SDS011;39791;53.184;5.486;2023-08-20T08:54:12;37.17;;;26.95;;
53879;SDS011;39791;53.184;5.486;2023-08-20T08:56:39;31.23;;;25.75;;
53879;SDS011;39791;53.184;5.486;2023-08-20T08:59:04;31.45;;;25.00;;
53879;SDS011;39791;53.184;5.486;2023-08-20T09:01:30;30.35;;;25.27;;
53879;SDS011;39791;53.184;5.486;2023-08-20T09:03:56;32.85;;;25.38;;
53879;SDS011;39791;53.184;5.486;2023-08-20T09:06:22;32.00;;;24.73;;
53879;SDS011;39791;53.184;5.486;2023-08-20T09:08:47;35.53;;;27.20;;
53879;SDS011;39791;53.184;5.486;2023-08-20T09:11:13;32.78;;;26.20;;
53879;SDS011;39791;53.184;5.486;2023-08-20T09:13:39;30.80;;;25.63;;
53879;SDS011;39791;53.184;5.486;2023-08-20T09:16:10;31.60;;;25.88;;
53879;SDS011;39791;53.184;5.486;2023-08-20T09:18:40;33.13;;;27.00;;
53879;SDS011;39791;53.184;5.486;2023-08-20T09:21:10;30.75;;;25.65;;
53879;SDS011;39791;53.184;5.486;2023-08-20T09:23:37;32.55;;;27.05;;
53879;SDS011;39791;53.184;5.486;2023-08-20T09:26:03;36.30;;;26.90;;
53879;SDS011;39791;53.184;5.486;2023-08-20T09:28:43;33.60;;;24.90;;
53879;SDS011;39791;53.184;5.486;2023-08-20T09:31:12;31.77;;;25.98;;
53879;SDS011;39791;53.184;5.486;2023-08-20T09:33:48;38.78;;;27.40;;
53879;SDS011;39791;53.184;5.486;2023-08-20T09:36:18;35.33;;;25.90;;
53879;SDS011;39791;53.184;5.486;2023-08-20T09:38:44;33.88;;;25.55;;
53879;SDS011;39791;53.184;5.486;2023-08-20T09:41:09;33.75;;;23.55;;
53879;SDS011;39791;53.184;5.486;2023-08-20T09:43:37;30.88;;;23.58;;
53879;SDS011;39791;53.184;5.486;2023-08-20T09:46:03;32.67;;;25.55;;
53879;SDS011;39791;53.184;5.486;2023-08-20T09:48:33;37.67;;;24.27;;
53879;SDS011;39791;53.184;5.486;2023-08-20T09:51:01;32.50;;;24.58;;
53879;SDS011;39791;53.184;5.486;2023-08-20T09:53:38;26.05;;;23.25;;
53879;SDS011;39791;53.184;5.486;2023-08-20T09:56:32;32.17;;;25.17;;
53879;SDS011;39791;53.184;5.486;2023-08-20T09:59:04;29.80;;;22.20;;
53879;SDS011;39791;53.184;5.486;2023-08-20T10:01:30;26.50;;;21.42;;
53879;SDS011;39791;53.184;5.486;2023-08-20T10:03:56;26.85;;;22.33;;
53879;SDS011;39791;53.184;5.486;2023-08-20T10:06:22;27.58;;;20.45;;
53879;SDS011;39791;53.184;5.486;2023-08-20T10:08:49;23.10;;;19.70;;
53879;SDS011;39791;53.184;5.486;2023-08-20T10:11:16;24.52;;;21.90;;
53879;SDS011;39791;53.184;5.486;2023-08-20T10:13:42;22.73;;;19.48;;
53879;SDS011;39791;53.184;5.486;2023-08-20T10:16:08;26.23;;;18.20;;
53879;SDS011;39791;53.184;5.486;2023-08-20T10:18:36;25.17;;;18.00;;
53879;SDS011;39791;53.184;5.486;2023-08-20T10:21:02;23.38;;;19.40;;
53879;SDS011;39791;53.184;5.486;2023-08-20T10:23:29;27.15;;;18.67;;
53879;SDS011;39791;53.184;5.486;2023-08-20T10:25:56;20.27;;;16.80;;
53879;SDS011;39791;53.184;5.486;2023-08-20T10:28:32;22.80;;;18.17;;
53879;SDS011;39791;53.184;5.486;2023-08-20T10:31:08;21.30;;;17.88;;
53879;SDS011;39791;53.184;5.486;2023-08-20T10:33:47;26.23;;;18.70;;
53879;SDS011;39791;53.184;5.486;2023-08-20T10:36:18;23.83;;;18.55;;
53879;SDS011;39791;53.184;5.486;2023-08-20T10:38:53;27.48;;;21.33;;
53879;SDS011;39791;53.184;5.486;2023-08-20T10:41:26;28.60;;;21.75;;
53879;SDS011;39791;53.184;5.486;2023-08-20T10:43:54;22.95;;;19.58;;
53879;SDS011;39791;53.184;5.486;2023-08-20T10:46:22;24.20;;;18.83;;
53879;SDS011;39791;53.184;5.486;2023-08-20T10:48:53;26.33;;;17.67;;
53879;SDS011;39791;53.184;5.486;2023-08-20T10:54:05;25.52;;;19.77;;
53879;SDS011;39791;53.184;5.486;2023-08-20T10:56:42;25.27;;;19.30;;
53879;SDS011;39791;53.184;5.486;2023-08-20T11:01:51;23.33;;;19.83;;
53879;SDS011;39791;53.184;5.486;2023-08-20T11:04:19;21.40;;;17.35;;
53879;SDS011;39791;53.184;5.486;2023-08-20T11:06:45;22.38;;;18.38;;
53879;SDS011;39791;53.184;5.486;2023-08-20T11:09:14;26.77;;;19.15;;
53879;SDS011;39791;53.184;5.486;2023-08-20T11:11:40;19.02;;;17.00;;
53879;SDS011;39791;53.184;5.486;2023-08-20T11:14:07;27.00;;;20.10;;
53879;SDS011;39791;53.184;5.486;2023-08-20T11:16:36;19.88;;;17.75;;
53879;SDS011;39791;53.184;5.486;2023-08-20T11:19:03;27.38;;;20.77;;
53879;SDS011;39791;53.184;5.486;2023-08-20T11:21:33;23.60;;;19.27;;
53879;SDS011;39791;53.184;5.486;2023-08-20T11:24:00;27.25;;;20.58;;
53879;SDS011;39791;53.184;5.486;2023-08-20T11:26:26;23.50;;;19.42;;
53879;SDS011;39791;53.184;5.486;2023-08-20T11:28:52;23.63;;;18.15;;
53879;SDS011;39791;53.184;5.486;2023-08-20T11:31:17;21.27;;;18.98;;
53879;SDS011;39791;53.184;5.486;2023-08-20T11:33:44;22.98;;;19.55;;
53879;SDS011;39791;53.184;5.486;2023-08-20T11:36:09;22.67;;;18.92;;
53879;SDS011;39791;53.184;5.486;2023-08-20T11:38:35;22.05;;;18.95;;
53879;SDS011;39791;53.184;5.486;2023-08-20T11:41:01;24.15;;;18.75;;
53879;SDS011;39791;53.184;5.486;2023-08-20T11:43:27;20.70;;;17.27;;
53879;SDS011;39791;53.184;5.486;2023-08-20T11:45:53;19.35;;;17.38;;
53879;SDS011;39791;53.184;5.486;2023-08-20T11:48:19;24.13;;;17.05;;
53879;SDS011;39791;53.184;5.486;2023-08-20T11:50:46;18.60;;;16.48;;
53879;SDS011;39791;53.184;5.486;2023-08-20T11:53:12;28.35;;;19.73;;
53879;SDS011;39791;53.184;5.486;2023-08-20T11:55:39;21.38;;;16.17;;
53879;SDS011;39791;53.184;5.486;2023-08-20T11:58:05;22.70;;;17.52;;
53879;SDS011;39791;53.184;5.486;2023-08-20T12:00:33;19.52;;;17.52;;
53879;SDS011;39791;53.184;5.486;2023-08-20T12:02:58;19.90;;;17.02;;
53879;SDS011;39791;53.184;5.486;2023-08-20T12:05:28;24.30;;;17.15;;
53879;SDS011;39791;53.184;5.486;2023-08-20T12:10:26;18.58;;;16.55;;
53879;SDS011;39791;53.184;5.486;2023-08-20T12:12:54;20.67;;;18.23;;
53879;SDS011;39791;53.184;5.486;2023-08-20T12:15:20;21.88;;;16.80;;
53879;SDS011;39791;53.184;5.486;2023-08-20T12:18:02;18.70;;;16.67;;
53879;SDS011;39791;53.184;5.486;2023-08-20T12:20:34;21.67;;;19.30;;
53879;SDS011;39791;53.184;5.486;2023-08-20T12:23:03;22.05;;;16.70;;
53879;SDS011;39791;53.184;5.486;2023-08-20T12:25:32;24.58;;;18.00;;
53879;SDS011;39791;53.184;5.486;2023-08-20T12:28:00;22.60;;;18.83;;
53879;SDS011;39791;53.184;5.486;2023-08-20T12:30:26;22.35;;;17.65;;
53879;SDS011;39791;53.184;5.486;2023-08-20T12:32:52;20.42;;;18.08;;
53879;SDS011;39791;53.184;5.486;2023-08-20T12:35:17;20.73;;;17.13;;
53879;SDS011;39791;53.184;5.486;2023-08-20T12:37:43;21.90;;;17.75;;
53879;SDS011;39791;53.184;5.486;2023-08-20T12:40:09;22.13;;;17.80;;
53879;SDS011;39791;53.184;5.486;2023-08-20T12:42:38;23.60;;;16.30;;
53879;SDS011;39791;53.184;5.486;2023-08-20T12:45:05;21.25;;;18.20;;
53879;SDS011;39791;53.184;5.486;2023-08-20T12:47:31;21.70;;;17.75;;
53879;SDS011;39791;53.184;5.486;2023-08-20T12:49:57;20.70;;;17.02;;
53879;SDS011;39791;53.184;5.486;2023-08-20T12:52:22;24.08;;;17.67;;
53879;SDS011;39791;53.184;5.486;2023-08-20T12:54:48;19.65;;;17.63;;
53879;SDS011;39791;53.184;5.486;2023-08-20T12:57:13;28.48;;;18.45;;
53879;SDS011;39791;53.184;5.486;2023-08-20T12:59:39;23.65;;;17.90;;
53879;SDS011;39791;53.184;5.486;2023-08-20T13:02:05;20.98;;;17.88;;
53879;SDS011;39791;53.184;5.486;2023-08-20T13:04:30;24.70;;;18.30;;
53879;SDS011;39791;53.184;5.486;2023-08-20T13:06:56;28.88;;;19.50;;
53879;SDS011;39791;53.184;5.486;2023-08-20T13:09:22;32.80;;;19.27;;
53879;SDS011;39791;53.184;5.486;2023-08-20T13:11:48;24.00;;;18.30;;
53879;SDS011;39791;53.184;5.486;2023-08-20T13:14:14;23.70;;;18.45;;
53879;SDS011;39791;53.184;5.486;2023-08-20T13:16:40;19.48;;;17.48;;
53879;SDS011;39791;53.184;5.486;2023-08-20T13:19:06;25.02;;;18.95;;
53879;SDS011;39791;53.184;5.486;2023-08-20T13:21:32;22.63;;;18.17;;
53879;SDS011;39791;53.184;5.486;2023-08-20T13:23:57;22.05;;;17.75;;
53879;SDS011;39791;53.184;5.486;2023-08-20T13:26:23;23.17;;;18.30;;
53879;SDS011;39791;53.184;5.486;2023-08-20T13:28:51;21.08;;;17.63;;
53879;SDS011;39791;53.184;5.486;2023-08-20T13:31:17;24.10;;;18.25;;
53879;SDS011;39791;53.184;5.486;2023-08-20T13:33:42;21.77;;;17.55;;
53879;SDS011;39791;53.184;5.486;2023-08-20T13:36:08;22.85;;;18.55;;
53879;SDS011;39791;53.184;5.486;2023-08-20T13:38:33;23.92;;;17.80;;
53879;SDS011;39791;53.184;5.486;2023-08-20T13:40:59;23.48;;;18.63;;
53879;SDS011;39791;53.184;5.486;2023-08-20T13:43:25;25.17;;;18.60;;
53879;SDS011;39791;53.184;5.486;2023-08-20T13:45:50;23.58;;;17.70;;
53879;SDS011;39791;53.184;5.486;2023-08-20T13:48:16;22.27;;;18.45;;
53879;SDS011;39791;53.184;5.486;2023-08-20T13:50:41;25.27;;;17.52;;
53879;SDS011;39791;53.184;5.486;2023-08-20T13:53:07;23.33;;;17.35;;
53879;SDS011;39791;53.184;5.486;2023-08-20T13:55:33;23.17;;;17.48;;
53879;SDS011;39791;53.184;5.486;2023-08-20T13:57:59;24.15;;;17.45;;
53879;SDS011;39791;53.184;5.486;2023-08-20T14:00:24;23.02;;;17.38;;
53879;SDS011;39791;53.184;5.486;2023-08-20T14:02:50;25.33;;;17.50;;
53879;SDS011;39791;53.184;5.486;2023-08-20T14:05:16;22.35;;;17.92;;
53879;SDS011;39791;53.184;5.486;2023-08-20T14:07:41;21.83;;;17.98;;
53879;SDS011;39791;53.184;5.486;2023-08-20T14:10:07;22.35;;;17.95;;
53879;SDS011;39791;53.184;5.486;2023-08-20T14:12:33;21.10;;;17.63;;
53879;SDS011;39791;53.184;5.486;2023-08-20T14:14:59;20.33;;;17.55;;
53879;SDS011;39791;53.184;5.486;2023-08-20T14:17:24;21.70;;;17.73;;
53879;SDS011;39791;53.184;5.486;2023-08-20T14:19:50;22.35;;;18.45;;
53879;SDS011;39791;53.184;5.486;2023-08-20T14:22:16;21.65;;;18.90;;
53879;SDS011;39791;53.184;5.486;2023-08-20T14:24:42;22.20;;;17.63;;
53879;SDS011;39791;53.184;5.486;2023-08-20T14:27:07;22.25;;;18.20;;
53879;SDS011;39791;53.184;5.486;2023-08-20T14:29:33;20.13;;;18.02;;
53879;SDS011;39791;53.184;5.486;2023-08-20T14:31:59;23.42;;;19.15;;